R72107 ETIH-ETAD
Flight info
| Callsign | R72107 |
|---|---|
| Flight time | N/A |
| Altitude | 7000 |
| Route | VFR |
| Aircraft | EC45/L-SGT/S |
Departure
| Time | 2026-05-06 21:21 |
|---|---|
| Airport | Hohenfels Army Airfield (ETIH) |
Arrival
| Time | N/A |
|---|---|
| Airport | Spangdahlem Air Base (ETAD) |
| Time | Latitude | Longitude | Altitude | Speed | Heading |
|---|---|---|---|---|---|
| 2026-05-06 21:15 | 49.21581 | 11.84091 | 1458 ft | 0 kts | 332° |
| 2026-05-06 21:19 | 49.21580 | 11.84090 | 1464 ft | 2 kts | 322° |
| 2026-05-06 21:19 | 49.21572 | 11.84061 | 1460 ft | 5 kts | 310° |
| 2026-05-06 21:19 | 49.21610 | 11.84025 | 1466 ft | 8 kts | 330° |
| 2026-05-06 21:20 | 49.21651 | 11.83894 | 1489 ft | 37 kts | 266° |
| 2026-05-06 21:20 | 49.21658 | 11.83432 | 1651 ft | 72 kts | 267° |
| 2026-05-06 21:20 | 49.21479 | 11.82752 | 1941 ft | 77 kts | 251° |
| 2026-05-06 21:21 | 49.21228 | 11.81992 | 2257 ft | 84 kts | 250° |
| 2026-05-06 21:21 | 49.20938 | 11.81170 | 2531 ft | 90 kts | 247° |
| 2026-05-06 21:21 | 49.20627 | 11.80305 | 2722 ft | 94 kts | 248° |
| 2026-05-06 21:21 | 49.20306 | 11.79419 | 2980 ft | 97 kts | 247° |
| 2026-05-06 21:22 | 49.19954 | 11.78443 | 3025 ft | 113 kts | 247° |
| 2026-05-06 21:22 | 49.19556 | 11.77323 | 3006 ft | 126 kts | 245° |
| 2026-05-06 21:22 | 49.19112 | 11.76106 | 2996 ft | 135 kts | 246° |
| 2026-05-06 21:22 | 49.18666 | 11.74922 | 3142 ft | 114 kts | 245° |
| 2026-05-06 21:23 | 49.18333 | 11.73915 | 3056 ft | 108 kts | 253° |
| 2026-05-06 21:23 | 49.18145 | 11.72741 | 3020 ft | 120 kts | 266° |
| 2026-05-06 21:23 | 49.18184 | 11.71477 | 3019 ft | 118 kts | 278° |
| 2026-05-06 21:23 | 49.18282 | 11.70246 | 3003 ft | 117 kts | 278° |
| 2026-05-06 21:24 | 49.18384 | 11.69006 | 3002 ft | 116 kts | 278° |
| 2026-05-06 21:24 | 49.18491 | 11.67808 | 3000 ft | 116 kts | 278° |
| 2026-05-06 21:24 | 49.18609 | 11.66568 | 2992 ft | 118 kts | 279° |
| 2026-05-06 21:24 | 49.18730 | 11.65317 | 3002 ft | 119 kts | 279° |
| 2026-05-06 21:25 | 49.18849 | 11.64071 | 2997 ft | 120 kts | 279° |
| 2026-05-06 21:25 | 49.18970 | 11.62807 | 3003 ft | 120 kts | 278° |
| 2026-05-06 21:25 | 49.19089 | 11.61548 | 3005 ft | 119 kts | 278° |
| 2026-05-06 21:25 | 49.19207 | 11.60303 | 2998 ft | 118 kts | 278° |
| 2026-05-06 21:26 | 49.19326 | 11.59056 | 2999 ft | 118 kts | 278° |
| 2026-05-06 21:26 | 49.19444 | 11.57814 | 2999 ft | 118 kts | 278° |
| 2026-05-06 21:26 | 49.19562 | 11.56566 | 3006 ft | 118 kts | 279° |
| 2026-05-06 21:26 | 49.19679 | 11.55325 | 3001 ft | 119 kts | 278° |
| 2026-05-06 21:27 | 49.19797 | 11.54072 | 3007 ft | 117 kts | 278° |
| 2026-05-06 21:27 | 49.19912 | 11.52845 | 2997 ft | 117 kts | 278° |
| 2026-05-06 21:27 | 49.20020 | 11.51611 | 3007 ft | 116 kts | 277° |
| 2026-05-06 21:27 | 49.20114 | 11.50491 | 2992 ft | 119 kts | 278° |
| 2026-05-06 21:28 | 49.20221 | 11.49230 | 3002 ft | 120 kts | 278° |
| 2026-05-06 21:28 | 49.20326 | 11.47967 | 3003 ft | 119 kts | 277° |
| 2026-05-06 21:28 | 49.20431 | 11.46715 | 3006 ft | 118 kts | 278° |
| 2026-05-06 21:28 | 49.20589 | 11.45493 | 2992 ft | 120 kts | 281° |
| 2026-05-06 21:29 | 49.20753 | 11.44291 | 3174 ft | 112 kts | 282° |
| 2026-05-06 21:29 | 49.20915 | 11.43110 | 3250 ft | 114 kts | 281° |
| 2026-05-06 21:29 | 49.21078 | 11.41916 | 3336 ft | 115 kts | 281° |
| 2026-05-06 21:29 | 49.21240 | 11.40721 | 3485 ft | 112 kts | 281° |
| 2026-05-06 21:30 | 49.21398 | 11.39565 | 3688 ft | 110 kts | 281° |
| 2026-05-06 21:30 | 49.21553 | 11.38427 | 3969 ft | 106 kts | 281° |
| 2026-05-06 21:30 | 49.21702 | 11.37345 | 4274 ft | 104 kts | 281° |
| 2026-05-06 21:30 | 49.21856 | 11.36222 | 4441 ft | 113 kts | 280° |
| 2026-05-06 21:31 | 49.22019 | 11.34999 | 4489 ft | 123 kts | 280° |
| 2026-05-06 21:31 | 49.22184 | 11.33743 | 4704 ft | 120 kts | 280° |
| 2026-05-06 21:31 | 49.22351 | 11.32478 | 4845 ft | 120 kts | 280° |
| 2026-05-06 21:31 | 49.22517 | 11.31212 | 4950 ft | 121 kts | 280° |
| 2026-05-06 21:32 | 49.22682 | 11.29962 | 5076 ft | 121 kts | 280° |
| 2026-05-06 21:32 | 49.23015 | 11.27432 | 5296 ft | 120 kts | 280° |
| 2026-05-06 21:32 | 49.23182 | 11.26168 | 5370 ft | 122 kts | 279° |
| 2026-05-06 21:33 | 49.23349 | 11.24895 | 5483 ft | 123 kts | 279° |
| 2026-05-06 21:33 | 49.23517 | 11.23618 | 5599 ft | 123 kts | 279° |
| 2026-05-06 21:33 | 49.23684 | 11.22348 | 5713 ft | 122 kts | 280° |
| 2026-05-06 21:33 | 49.23851 | 11.21077 | 5864 ft | 118 kts | 280° |
| 2026-05-06 21:34 | 49.24013 | 11.19871 | 6150 ft | 114 kts | 280° |
| 2026-05-06 21:34 | 49.24171 | 11.18708 | 6420 ft | 112 kts | 279° |
| 2026-05-06 21:34 | 49.24324 | 11.17578 | 6788 ft | 103 kts | 279° |
| 2026-05-06 21:34 | 49.24458 | 11.16553 | 6909 ft | 94 kts | 277° |
| 2026-05-06 21:35 | 49.24578 | 11.15581 | 6879 ft | 95 kts | 278° |
| 2026-05-06 21:35 | 49.24713 | 11.14522 | 6860 ft | 110 kts | 278° |
| 2026-05-06 21:35 | 49.24877 | 11.13276 | 6858 ft | 126 kts | 278° |
| 2026-05-06 21:35 | 49.25054 | 11.11917 | 6862 ft | 133 kts | 278° |
| 2026-05-06 21:36 | 49.25233 | 11.10518 | 6867 ft | 135 kts | 278° |
| 2026-05-06 21:36 | 49.25412 | 11.09110 | 6866 ft | 135 kts | 278° |
| 2026-05-06 21:36 | 49.25593 | 11.07699 | 6868 ft | 135 kts | 278° |
| 2026-05-06 21:36 | 49.25773 | 11.06291 | 6869 ft | 135 kts | 279° |
| 2026-05-06 21:37 | 49.25955 | 11.04882 | 6868 ft | 135 kts | 279° |
| 2026-05-06 21:37 | 49.26137 | 11.03471 | 6868 ft | 135 kts | 279° |
| 2026-05-06 21:37 | 49.26319 | 11.02057 | 6868 ft | 135 kts | 278° |
| 2026-05-06 21:37 | 49.26502 | 11.00637 | 6871 ft | 136 kts | 279° |
| 2026-05-06 21:38 | 49.26684 | 10.99231 | 6882 ft | 136 kts | 278° |
| 2026-05-06 21:38 | 49.26868 | 10.97805 | 6879 ft | 136 kts | 279° |
| 2026-05-06 21:38 | 49.27052 | 10.96377 | 6880 ft | 136 kts | 279° |
| 2026-05-06 21:38 | 49.27235 | 10.94956 | 6882 ft | 136 kts | 279° |
| 2026-05-06 21:39 | 49.27419 | 10.93533 | 6880 ft | 136 kts | 278° |
| 2026-05-06 21:39 | 49.27602 | 10.92109 | 6882 ft | 137 kts | 279° |
| 2026-05-06 21:39 | 49.27786 | 10.90676 | 6885 ft | 137 kts | 278° |
| 2026-05-06 21:39 | 49.27970 | 10.89247 | 6882 ft | 136 kts | 279° |
| 2026-05-06 21:40 | 49.28153 | 10.87822 | 6886 ft | 136 kts | 279° |
| 2026-05-06 21:40 | 49.28336 | 10.86395 | 6884 ft | 136 kts | 279° |
| 2026-05-06 21:40 | 49.28519 | 10.84967 | 6885 ft | 137 kts | 279° |
| 2026-05-06 21:40 | 49.28702 | 10.83534 | 6882 ft | 137 kts | 279° |
| 2026-05-06 21:41 | 49.28883 | 10.82121 | 6885 ft | 137 kts | 279° |
| 2026-05-06 21:41 | 49.29066 | 10.80692 | 6886 ft | 136 kts | 279° |
| 2026-05-06 21:41 | 49.29248 | 10.79261 | 6888 ft | 136 kts | 278° |
| 2026-05-06 21:41 | 49.29431 | 10.77830 | 6885 ft | 137 kts | 279° |
| 2026-05-06 21:42 | 49.29613 | 10.76399 | 6886 ft | 137 kts | 279° |
| 2026-05-06 21:42 | 49.29795 | 10.74968 | 6887 ft | 137 kts | 279° |
| 2026-05-06 21:42 | 49.29977 | 10.73536 | 6884 ft | 137 kts | 279° |
| 2026-05-06 21:42 | 49.30159 | 10.72100 | 6882 ft | 137 kts | 279° |
| 2026-05-06 21:43 | 49.30342 | 10.70660 | 6886 ft | 138 kts | 279° |
| 2026-05-06 21:43 | 49.30524 | 10.69221 | 6888 ft | 137 kts | 279° |
| 2026-05-06 21:43 | 49.30704 | 10.67802 | 6884 ft | 137 kts | 279° |
| 2026-05-06 21:43 | 49.30885 | 10.66370 | 6885 ft | 137 kts | 279° |
| 2026-05-06 21:44 | 49.31066 | 10.64938 | 6885 ft | 137 kts | 279° |
| 2026-05-06 21:44 | 49.31247 | 10.63501 | 6884 ft | 137 kts | 279° |
| 2026-05-06 21:44 | 49.31428 | 10.62062 | 6886 ft | 138 kts | 279° |
| 2026-05-06 21:44 | 49.31609 | 10.60622 | 6885 ft | 138 kts | 278° |
| 2026-05-06 21:45 | 49.31790 | 10.59185 | 6889 ft | 136 kts | 279° |
| 2026-05-06 21:45 | 49.31966 | 10.57784 | 6886 ft | 136 kts | 279° |
| 2026-05-06 21:45 | 49.32132 | 10.56457 | 6887 ft | 135 kts | 279° |
| 2026-05-06 21:45 | 49.32310 | 10.55038 | 6884 ft | 135 kts | 279° |
| 2026-05-06 21:46 | 49.32487 | 10.53625 | 6887 ft | 135 kts | 279° |
| 2026-05-06 21:46 | 49.32665 | 10.52206 | 6886 ft | 135 kts | 279° |
| 2026-05-06 21:46 | 49.32842 | 10.50794 | 6884 ft | 135 kts | 279° |
| 2026-05-06 21:46 | 49.33017 | 10.49394 | 6885 ft | 132 kts | 279° |
| 2026-05-06 21:47 | 49.33189 | 10.48017 | 6884 ft | 131 kts | 279° |
| 2026-05-06 21:47 | 49.33362 | 10.46638 | 6888 ft | 133 kts | 279° |
| 2026-05-06 21:47 | 49.33536 | 10.45242 | 6887 ft | 133 kts | 278° |
| 2026-05-06 21:47 | 49.33710 | 10.43845 | 6885 ft | 134 kts | 279° |
| 2026-05-06 21:48 | 49.33881 | 10.42461 | 6868 ft | 133 kts | 278° |
| 2026-05-06 21:48 | 49.34054 | 10.41062 | 6870 ft | 134 kts | 279° |
| 2026-05-06 21:48 | 49.34228 | 10.39655 | 6871 ft | 134 kts | 278° |
| 2026-05-06 21:48 | 49.34402 | 10.38251 | 6870 ft | 134 kts | 278° |
| 2026-05-06 21:49 | 49.34575 | 10.36854 | 6867 ft | 133 kts | 278° |
| 2026-05-06 21:49 | 49.34747 | 10.35461 | 6870 ft | 133 kts | 278° |
| 2026-05-06 21:49 | 49.34920 | 10.34063 | 6868 ft | 134 kts | 278° |
| 2026-05-06 21:49 | 49.35093 | 10.32656 | 6870 ft | 134 kts | 278° |
| 2026-05-06 21:50 | 49.35266 | 10.31249 | 6869 ft | 134 kts | 278° |
| 2026-05-06 21:50 | 49.35440 | 10.29840 | 6869 ft | 134 kts | 278° |
| 2026-05-06 21:50 | 49.35612 | 10.28435 | 6868 ft | 134 kts | 278° |
| 2026-05-06 21:50 | 49.35786 | 10.27025 | 6870 ft | 135 kts | 278° |
| 2026-05-06 21:51 | 49.35959 | 10.25611 | 6869 ft | 135 kts | 278° |
| 2026-05-06 21:51 | 49.36134 | 10.24179 | 6869 ft | 136 kts | 278° |
| 2026-05-06 21:51 | 49.36309 | 10.22748 | 6868 ft | 136 kts | 278° |
| 2026-05-06 21:51 | 49.36481 | 10.21339 | 6870 ft | 136 kts | 278° |
| 2026-05-06 21:52 | 49.36654 | 10.19919 | 6863 ft | 136 kts | 278° |
| 2026-05-06 21:52 | 49.36828 | 10.18502 | 6866 ft | 135 kts | 278° |
| 2026-05-06 21:52 | 49.37002 | 10.17074 | 6863 ft | 136 kts | 278° |
| 2026-05-06 21:52 | 49.37175 | 10.15649 | 6864 ft | 136 kts | 278° |
| 2026-05-06 21:53 | 49.37345 | 10.14227 | 6864 ft | 136 kts | 278° |
| 2026-05-06 21:53 | 49.37524 | 10.12796 | 6866 ft | 136 kts | 280° |
| 2026-05-06 21:53 | 49.37750 | 10.11381 | 6863 ft | 136 kts | 282° |
| 2026-05-06 21:53 | 49.37985 | 10.09994 | 6864 ft | 136 kts | 282° |
| 2026-05-06 21:54 | 49.38230 | 10.08573 | 6864 ft | 136 kts | 282° |
| 2026-05-06 21:54 | 49.38472 | 10.07170 | 6863 ft | 136 kts | 282° |
| 2026-05-06 21:54 | 49.38716 | 10.05761 | 6864 ft | 137 kts | 282° |
| 2026-05-06 21:54 | 49.38959 | 10.04359 | 6864 ft | 138 kts | 282° |
| 2026-05-06 21:55 | 49.39205 | 10.02941 | 6864 ft | 137 kts | 282° |
| 2026-05-06 21:55 | 49.39450 | 10.01531 | 6866 ft | 137 kts | 282° |
| 2026-05-06 21:55 | 49.39696 | 10.00115 | 6864 ft | 137 kts | 282° |
| 2026-05-06 21:55 | 49.39941 | 9.98700 | 6866 ft | 137 kts | 282° |
| 2026-05-06 21:56 | 49.40186 | 9.97289 | 6864 ft | 137 kts | 282° |
| 2026-05-06 21:56 | 49.40430 | 9.95879 | 6865 ft | 136 kts | 282° |
| 2026-05-06 21:56 | 49.40673 | 9.94474 | 6864 ft | 136 kts | 282° |
| 2026-05-06 21:56 | 49.40917 | 9.93062 | 6864 ft | 137 kts | 282° |
| 2026-05-06 21:57 | 49.41160 | 9.91658 | 6865 ft | 138 kts | 282° |
| 2026-05-06 21:57 | 49.41407 | 9.90235 | 6864 ft | 138 kts | 282° |
| 2026-05-06 21:57 | 49.41652 | 9.88815 | 6867 ft | 138 kts | 282° |
| 2026-05-06 21:57 | 49.41897 | 9.87392 | 6866 ft | 138 kts | 282° |
| 2026-05-06 21:58 | 49.42143 | 9.85965 | 6867 ft | 138 kts | 282° |
| 2026-05-06 21:58 | 49.42387 | 9.84546 | 6867 ft | 137 kts | 282° |
| 2026-05-06 21:58 | 49.42630 | 9.83133 | 6864 ft | 137 kts | 282° |
| 2026-05-06 21:58 | 49.42875 | 9.81709 | 6866 ft | 138 kts | 282° |
| 2026-05-06 21:59 | 49.43119 | 9.80290 | 6868 ft | 138 kts | 282° |
| 2026-05-06 21:59 | 49.43282 | 9.79344 | 6853 ft | 138 kts | 282° |
| 2026-05-06 21:59 | 49.43527 | 9.77917 | 6857 ft | 138 kts | 282° |
| 2026-05-06 21:59 | 49.43771 | 9.76491 | 6859 ft | 138 kts | 282° |
| 2026-05-06 22:00 | 49.44016 | 9.75062 | 6858 ft | 138 kts | 282° |
| 2026-05-06 22:00 | 49.44260 | 9.73634 | 6867 ft | 138 kts | 282° |
| 2026-05-06 22:00 | 49.44505 | 9.72201 | 6863 ft | 138 kts | 282° |
| 2026-05-06 22:00 | 49.44748 | 9.70778 | 6866 ft | 137 kts | 282° |
| 2026-05-06 22:01 | 49.44989 | 9.69368 | 6865 ft | 137 kts | 282° |
| 2026-05-06 22:01 | 49.45231 | 9.67945 | 6860 ft | 137 kts | 281° |
| 2026-05-06 22:01 | 49.45474 | 9.66526 | 6859 ft | 138 kts | 281° |
| 2026-05-06 22:01 | 49.45712 | 9.65128 | 6862 ft | 137 kts | 282° |
| 2026-05-06 22:02 | 49.45952 | 9.63717 | 6861 ft | 137 kts | 281° |
| 2026-05-06 22:02 | 49.46192 | 9.62309 | 6858 ft | 136 kts | 282° |
| 2026-05-06 22:02 | 49.46433 | 9.60894 | 6863 ft | 137 kts | 281° |
| 2026-05-06 22:02 | 49.46673 | 9.59478 | 6861 ft | 137 kts | 281° |
| 2026-05-06 22:03 | 49.46914 | 9.58063 | 6866 ft | 136 kts | 281° |
| 2026-05-06 22:03 | 49.47153 | 9.56649 | 6870 ft | 137 kts | 281° |
| 2026-05-06 22:03 | 49.47394 | 9.55231 | 6869 ft | 137 kts | 281° |
| 2026-05-06 22:03 | 49.47634 | 9.53809 | 6864 ft | 138 kts | 281° |
| 2026-05-06 22:04 | 49.47876 | 9.52380 | 6863 ft | 137 kts | 281° |
| 2026-05-06 22:04 | 49.48116 | 9.50955 | 6862 ft | 138 kts | 281° |
| 2026-05-06 22:04 | 49.48357 | 9.49524 | 6862 ft | 138 kts | 281° |
| 2026-05-06 22:04 | 49.48598 | 9.48096 | 6860 ft | 138 kts | 281° |
| 2026-05-06 22:05 | 49.48841 | 9.46656 | 6861 ft | 139 kts | 281° |
| 2026-05-06 22:05 | 49.49082 | 9.45219 | 6866 ft | 139 kts | 281° |
| 2026-05-06 22:05 | 49.49324 | 9.43783 | 6868 ft | 138 kts | 281° |
| 2026-05-06 22:05 | 49.49560 | 9.42377 | 6860 ft | 137 kts | 281° |
| 2026-05-06 22:06 | 49.49797 | 9.40960 | 6868 ft | 137 kts | 281° |
| 2026-05-06 22:06 | 49.50034 | 9.39544 | 6860 ft | 137 kts | 281° |
| 2026-05-06 22:06 | 49.50273 | 9.38124 | 6869 ft | 136 kts | 281° |
| 2026-05-06 22:06 | 49.50510 | 9.36712 | 6864 ft | 136 kts | 281° |
| 2026-05-06 22:07 | 49.50747 | 9.35299 | 6865 ft | 137 kts | 281° |
| 2026-05-06 22:07 | 49.50987 | 9.33869 | 6861 ft | 138 kts | 281° |
| 2026-05-06 22:07 | 49.51226 | 9.32434 | 6869 ft | 139 kts | 281° |
| 2026-05-06 22:07 | 49.51466 | 9.30999 | 6865 ft | 138 kts | 281° |
| 2026-05-06 22:08 | 49.51704 | 9.29570 | 6869 ft | 138 kts | 281° |
| 2026-05-06 22:08 | 49.51943 | 9.28134 | 6872 ft | 138 kts | 281° |
| 2026-05-06 22:08 | 49.52181 | 9.26709 | 6864 ft | 137 kts | 281° |
| 2026-05-06 22:08 | 49.52417 | 9.25288 | 6872 ft | 137 kts | 281° |
| 2026-05-06 22:09 | 49.52652 | 9.23859 | 6874 ft | 138 kts | 281° |
| 2026-05-06 22:09 | 49.52861 | 9.22419 | 6870 ft | 138 kts | 279° |
| 2026-05-06 22:09 | 49.53058 | 9.20977 | 6864 ft | 138 kts | 279° |
| 2026-05-06 22:09 | 49.53253 | 9.19531 | 6874 ft | 138 kts | 279° |
| 2026-05-06 22:10 | 49.53443 | 9.18099 | 6875 ft | 138 kts | 279° |
| 2026-05-06 22:10 | 49.53635 | 9.16652 | 6869 ft | 138 kts | 279° |
| 2026-05-06 22:10 | 49.53825 | 9.15210 | 6869 ft | 137 kts | 278° |
| 2026-05-06 22:10 | 49.54018 | 9.13749 | 6875 ft | 138 kts | 278° |
| 2026-05-06 22:11 | 49.54205 | 9.12324 | 6878 ft | 137 kts | 279° |
| 2026-05-06 22:11 | 49.54394 | 9.10879 | 6878 ft | 138 kts | 278° |
| 2026-05-06 22:11 | 49.54585 | 9.09421 | 6875 ft | 139 kts | 278° |
| 2026-05-06 22:11 | 49.54775 | 9.07964 | 6878 ft | 139 kts | 278° |
| 2026-05-06 22:12 | 49.54965 | 9.06513 | 6880 ft | 138 kts | 278° |
| 2026-05-06 22:12 | 49.55154 | 9.05060 | 6876 ft | 138 kts | 279° |
| 2026-05-06 22:12 | 49.55343 | 9.03614 | 6879 ft | 137 kts | 278° |
| 2026-05-06 22:12 | 49.55530 | 9.02173 | 6879 ft | 138 kts | 278° |
| 2026-05-06 22:13 | 49.55718 | 9.00725 | 6883 ft | 138 kts | 277° |
| 2026-05-06 22:13 | 49.55905 | 8.99290 | 6880 ft | 137 kts | 278° |
| 2026-05-06 22:13 | 49.56091 | 8.97852 | 6883 ft | 137 kts | 278° |
| 2026-05-06 22:13 | 49.56275 | 8.96430 | 6879 ft | 137 kts | 278° |
| 2026-05-06 22:14 | 49.56461 | 8.94993 | 6884 ft | 137 kts | 278° |
| 2026-05-06 22:14 | 49.56649 | 8.93540 | 6882 ft | 138 kts | 278° |
| 2026-05-06 22:14 | 49.56836 | 8.92090 | 6885 ft | 138 kts | 278° |
| 2026-05-06 22:14 | 49.57023 | 8.90643 | 6888 ft | 137 kts | 278° |
| 2026-05-06 22:15 | 49.57208 | 8.89206 | 6882 ft | 137 kts | 278° |
| 2026-05-06 22:15 | 49.57392 | 8.87774 | 6878 ft | 136 kts | 278° |
| 2026-05-06 22:15 | 49.57576 | 8.86337 | 6885 ft | 137 kts | 278° |
| 2026-05-06 22:15 | 49.57761 | 8.84896 | 6887 ft | 138 kts | 278° |
| 2026-05-06 22:16 | 49.57947 | 8.83451 | 6888 ft | 137 kts | 278° |
| 2026-05-06 22:16 | 49.58131 | 8.82017 | 6890 ft | 136 kts | 278° |
| 2026-05-06 22:16 | 49.58315 | 8.80581 | 6885 ft | 136 kts | 278° |
| 2026-05-06 22:16 | 49.58498 | 8.79155 | 6888 ft | 136 kts | 278° |
| 2026-05-06 22:17 | 49.58682 | 8.77723 | 6898 ft | 136 kts | 278° |
| 2026-05-06 22:17 | 49.58865 | 8.76288 | 6890 ft | 137 kts | 278° |
| 2026-05-06 22:17 | 49.59047 | 8.74860 | 6881 ft | 137 kts | 278° |
| 2026-05-06 22:17 | 49.59230 | 8.73418 | 6890 ft | 137 kts | 278° |
| 2026-05-06 22:18 | 49.59413 | 8.71981 | 6894 ft | 136 kts | 278° |
| 2026-05-06 22:18 | 49.59596 | 8.70551 | 6888 ft | 137 kts | 278° |
| 2026-05-06 22:18 | 49.59778 | 8.69119 | 6890 ft | 136 kts | 278° |
| 2026-05-06 22:18 | 49.59961 | 8.67678 | 6893 ft | 136 kts | 277° |
| 2026-05-06 22:19 | 49.60143 | 8.66234 | 6889 ft | 137 kts | 277° |
| 2026-05-06 22:19 | 49.60325 | 8.64793 | 6891 ft | 136 kts | 277° |
| 2026-05-06 22:19 | 49.60506 | 8.63365 | 6893 ft | 135 kts | 277° |
| 2026-05-06 22:19 | 49.60685 | 8.61944 | 6890 ft | 135 kts | 277° |
| 2026-05-06 22:20 | 49.60865 | 8.60522 | 6895 ft | 135 kts | 277° |
| 2026-05-06 22:20 | 49.61045 | 8.59099 | 6891 ft | 135 kts | 277° |
| 2026-05-06 22:20 | 49.61223 | 8.57692 | 6889 ft | 135 kts | 277° |
| 2026-05-06 22:20 | 49.61402 | 8.56270 | 6894 ft | 135 kts | 277° |
| 2026-05-06 22:21 | 49.61581 | 8.54847 | 6882 ft | 135 kts | 277° |
| 2026-05-06 22:21 | 49.61759 | 8.53428 | 6891 ft | 135 kts | 277° |
| 2026-05-06 22:21 | 49.61937 | 8.52004 | 6895 ft | 135 kts | 277° |
| 2026-05-06 22:21 | 49.62115 | 8.50586 | 6883 ft | 135 kts | 277° |
| 2026-05-06 22:22 | 49.62293 | 8.49166 | 6892 ft | 135 kts | 277° |
| 2026-05-06 22:22 | 49.62469 | 8.47753 | 6895 ft | 134 kts | 277° |
| 2026-05-06 22:22 | 49.62646 | 8.46337 | 6883 ft | 134 kts | 277° |
| 2026-05-06 22:22 | 49.62823 | 8.44924 | 6889 ft | 135 kts | 277° |
| 2026-05-06 22:23 | 49.63000 | 8.43504 | 6892 ft | 135 kts | 277° |
| 2026-05-06 22:23 | 49.63177 | 8.42084 | 6894 ft | 134 kts | 277° |
| 2026-05-06 22:23 | 49.63350 | 8.40686 | 6895 ft | 134 kts | 277° |
| 2026-05-06 22:23 | 49.63526 | 8.39271 | 6890 ft | 135 kts | 277° |
| 2026-05-06 22:24 | 49.63703 | 8.37845 | 6893 ft | 136 kts | 277° |
| 2026-05-06 22:24 | 49.63881 | 8.36413 | 6896 ft | 136 kts | 277° |
| 2026-05-06 22:24 | 49.64058 | 8.34979 | 6888 ft | 136 kts | 277° |
| 2026-05-06 22:24 | 49.64236 | 8.33544 | 6894 ft | 136 kts | 277° |
| 2026-05-06 22:25 | 49.64413 | 8.32112 | 6894 ft | 136 kts | 277° |
| 2026-05-06 22:25 | 49.64589 | 8.30679 | 6890 ft | 136 kts | 277° |
| 2026-05-06 22:25 | 49.64766 | 8.29245 | 6888 ft | 136 kts | 277° |
| 2026-05-06 22:25 | 49.64943 | 8.27807 | 6894 ft | 136 kts | 277° |
| 2026-05-06 22:26 | 49.65117 | 8.26392 | 6895 ft | 136 kts | 277° |
| 2026-05-06 22:26 | 49.65294 | 8.24957 | 6895 ft | 136 kts | 277° |
| 2026-05-06 22:26 | 49.65469 | 8.23526 | 6888 ft | 136 kts | 277° |
| 2026-05-06 22:26 | 49.65645 | 8.22093 | 6888 ft | 136 kts | 277° |
| 2026-05-06 22:27 | 49.65822 | 8.20651 | 6894 ft | 136 kts | 278° |
| 2026-05-06 22:27 | 49.65997 | 8.19214 | 6892 ft | 136 kts | 278° |
| 2026-05-06 22:27 | 49.66173 | 8.17779 | 6893 ft | 136 kts | 277° |
| 2026-05-06 22:27 | 49.66348 | 8.16341 | 6890 ft | 136 kts | 278° |
| 2026-05-06 22:28 | 49.66523 | 8.14908 | 6887 ft | 136 kts | 278° |
| 2026-05-06 22:28 | 49.66698 | 8.13477 | 6895 ft | 136 kts | 278° |
| 2026-05-06 22:28 | 49.66873 | 8.12040 | 6893 ft | 136 kts | 278° |
| 2026-05-06 22:28 | 49.67047 | 8.10605 | 6896 ft | 136 kts | 278° |
| 2026-05-06 22:29 | 49.67222 | 8.09167 | 6894 ft | 136 kts | 278° |
| 2026-05-06 22:29 | 49.67396 | 8.07727 | 6892 ft | 136 kts | 278° |
| 2026-05-06 22:29 | 49.67568 | 8.06310 | 6892 ft | 136 kts | 278° |
| 2026-05-06 22:29 | 49.67742 | 8.04875 | 6891 ft | 136 kts | 278° |
| 2026-05-06 22:30 | 49.67915 | 8.03440 | 6884 ft | 136 kts | 278° |
| 2026-05-06 22:30 | 49.68090 | 8.01999 | 6886 ft | 136 kts | 278° |
| 2026-05-06 22:30 | 49.68263 | 8.00561 | 6887 ft | 136 kts | 278° |
| 2026-05-06 22:30 | 49.68436 | 7.99123 | 6888 ft | 136 kts | 278° |
| 2026-05-06 22:31 | 49.68609 | 7.97688 | 6886 ft | 136 kts | 278° |
| 2026-05-06 22:31 | 49.68784 | 7.96238 | 6889 ft | 137 kts | 278° |
| 2026-05-06 22:31 | 49.68958 | 7.94793 | 6890 ft | 136 kts | 278° |
| 2026-05-06 22:31 | 49.69130 | 7.93355 | 6890 ft | 136 kts | 278° |
| 2026-05-06 22:32 | 49.69300 | 7.91941 | 6889 ft | 135 kts | 277° |
| 2026-05-06 22:32 | 49.69472 | 7.90508 | 6890 ft | 136 kts | 278° |
| 2026-05-06 22:32 | 49.69645 | 7.89065 | 6890 ft | 137 kts | 278° |
| 2026-05-06 22:32 | 49.69817 | 7.87627 | 6885 ft | 136 kts | 278° |
| 2026-05-06 22:33 | 49.69988 | 7.86184 | 6894 ft | 137 kts | 278° |
| 2026-05-06 22:33 | 49.70162 | 7.84733 | 6886 ft | 137 kts | 278° |
| 2026-05-06 22:33 | 49.70335 | 7.83281 | 6887 ft | 137 kts | 278° |
| 2026-05-06 22:33 | 49.70507 | 7.81831 | 6895 ft | 137 kts | 278° |
| 2026-05-06 22:34 | 49.70679 | 7.80375 | 6893 ft | 138 kts | 278° |
| 2026-05-06 22:34 | 49.70852 | 7.78922 | 6896 ft | 137 kts | 278° |
| 2026-05-06 22:34 | 49.71024 | 7.77471 | 6894 ft | 137 kts | 278° |
| 2026-05-06 22:34 | 49.71195 | 7.76032 | 6895 ft | 137 kts | 278° |
| 2026-05-06 22:35 | 49.71366 | 7.74585 | 6895 ft | 137 kts | 278° |
| 2026-05-06 22:35 | 49.71538 | 7.73132 | 6896 ft | 137 kts | 278° |
| 2026-05-06 22:35 | 49.71706 | 7.71702 | 6896 ft | 136 kts | 278° |
| 2026-05-06 22:35 | 49.71876 | 7.70258 | 6889 ft | 137 kts | 278° |
| 2026-05-06 22:36 | 49.72048 | 7.68801 | 6886 ft | 137 kts | 278° |
| 2026-05-06 22:36 | 49.72219 | 7.67342 | 6896 ft | 138 kts | 278° |
| 2026-05-06 22:36 | 49.72390 | 7.65882 | 6896 ft | 138 kts | 278° |
| 2026-05-06 22:36 | 49.72561 | 7.64429 | 6890 ft | 138 kts | 278° |
| 2026-05-06 22:37 | 49.72732 | 7.62975 | 6894 ft | 137 kts | 278° |
| 2026-05-06 22:37 | 49.72902 | 7.61525 | 6897 ft | 137 kts | 278° |
| 2026-05-06 22:37 | 49.73072 | 7.60072 | 6893 ft | 137 kts | 278° |
| 2026-05-06 22:37 | 49.73242 | 7.58614 | 6896 ft | 138 kts | 278° |
| 2026-05-06 22:38 | 49.73412 | 7.57158 | 6902 ft | 137 kts | 278° |
| 2026-05-06 22:38 | 49.73579 | 7.55719 | 6903 ft | 138 kts | 278° |
| 2026-05-06 22:38 | 49.73749 | 7.54263 | 6896 ft | 138 kts | 278° |
| 2026-05-06 22:38 | 49.73918 | 7.52808 | 6903 ft | 138 kts | 278° |
| 2026-05-06 22:39 | 49.74087 | 7.51352 | 6902 ft | 138 kts | 278° |
| 2026-05-06 22:39 | 49.74256 | 7.49892 | 6904 ft | 138 kts | 278° |
| 2026-05-06 22:39 | 49.74425 | 7.48428 | 6904 ft | 138 kts | 278° |
| 2026-05-06 22:39 | 49.74595 | 7.46966 | 6905 ft | 138 kts | 278° |
| 2026-05-06 22:40 | 49.74763 | 7.45510 | 6908 ft | 138 kts | 277° |
| 2026-05-06 22:40 | 49.74932 | 7.44045 | 6909 ft | 138 kts | 277° |
| 2026-05-06 22:40 | 49.75101 | 7.42578 | 6903 ft | 138 kts | 277° |
| 2026-05-06 22:40 | 49.75270 | 7.41116 | 6911 ft | 138 kts | 278° |
| 2026-05-06 22:41 | 49.75603 | 7.38211 | 6910 ft | 138 kts | 277° |
| 2026-05-06 22:41 | 49.75771 | 7.36750 | 6913 ft | 137 kts | 277° |
| 2026-05-06 22:41 | 49.75938 | 7.35296 | 6908 ft | 138 kts | 277° |
| 2026-05-06 22:42 | 49.76107 | 7.33814 | 6912 ft | 138 kts | 277° |
| 2026-05-06 22:42 | 49.76275 | 7.32349 | 6913 ft | 138 kts | 277° |
| 2026-05-06 22:42 | 49.76438 | 7.30910 | 6911 ft | 136 kts | 277° |
| 2026-05-06 22:42 | 49.76604 | 7.29461 | 6913 ft | 137 kts | 277° |
| 2026-05-06 22:43 | 49.76769 | 7.28025 | 6911 ft | 137 kts | 277° |
| 2026-05-06 22:43 | 49.76936 | 7.26565 | 6912 ft | 138 kts | 277° |
| 2026-05-06 22:43 | 49.77103 | 7.25103 | 6908 ft | 138 kts | 277° |
| 2026-05-06 22:43 | 49.77269 | 7.23639 | 6914 ft | 138 kts | 277° |
| 2026-05-06 22:44 | 49.77435 | 7.22170 | 6911 ft | 138 kts | 277° |
| 2026-05-06 22:44 | 49.77601 | 7.20709 | 6912 ft | 138 kts | 277° |
| 2026-05-06 22:44 | 49.77766 | 7.19244 | 6907 ft | 138 kts | 277° |
| 2026-05-06 22:44 | 49.77932 | 7.17782 | 6914 ft | 138 kts | 277° |
| 2026-05-06 22:45 | 49.78098 | 7.16317 | 6910 ft | 138 kts | 277° |
| 2026-05-06 22:45 | 49.78207 | 7.15350 | 6911 ft | 138 kts | 277° |
| 2026-05-06 22:45 | 49.78370 | 7.13909 | 6912 ft | 138 kts | 277° |
| 2026-05-06 22:45 | 49.78534 | 7.12453 | 6913 ft | 138 kts | 277° |
| 2026-05-06 22:46 | 49.78749 | 7.11000 | 6908 ft | 140 kts | 284° |
| 2026-05-06 22:46 | 49.79137 | 7.09610 | 6909 ft | 141 kts | 291° |
| 2026-05-06 22:46 | 49.79577 | 7.08249 | 6915 ft | 141 kts | 292° |
| 2026-05-06 22:46 | 49.80027 | 7.06901 | 6914 ft | 141 kts | 293° |
| 2026-05-06 22:47 | 49.80484 | 7.05547 | 6911 ft | 141 kts | 293° |
| 2026-05-06 22:47 | 49.80793 | 7.04639 | 6910 ft | 142 kts | 293° |
| 2026-05-06 22:47 | 49.81252 | 7.03289 | 6907 ft | 141 kts | 293° |
| 2026-05-06 22:47 | 49.81714 | 7.01938 | 6905 ft | 142 kts | 293° |
| 2026-05-06 22:48 | 49.82169 | 7.00605 | 6912 ft | 142 kts | 294° |
| 2026-05-06 22:48 | 49.82632 | 6.99253 | 6912 ft | 142 kts | 293° |
| 2026-05-06 22:48 | 49.83094 | 6.97901 | 6909 ft | 142 kts | 293° |
| 2026-05-06 22:48 | 49.83555 | 6.96554 | 6910 ft | 142 kts | 293° |
| 2026-05-06 22:49 | 49.84016 | 6.95206 | 6896 ft | 142 kts | 293° |
| 2026-05-06 22:49 | 49.84478 | 6.93854 | 6900 ft | 142 kts | 293° |
| 2026-05-06 22:49 | 49.84940 | 6.92500 | 6903 ft | 142 kts | 293° |
| 2026-05-06 22:49 | 49.85404 | 6.91145 | 6901 ft | 142 kts | 293° |
| 2026-05-06 22:50 | 49.85865 | 6.89795 | 6903 ft | 142 kts | 293° |
| 2026-05-06 22:50 | 49.86328 | 6.88438 | 6900 ft | 142 kts | 293° |
| 2026-05-06 22:50 | 49.86792 | 6.87082 | 6899 ft | 142 kts | 293° |
| 2026-05-06 22:50 | 49.87256 | 6.85723 | 6904 ft | 143 kts | 293° |
| 2026-05-06 22:51 | 49.87718 | 6.84365 | 6900 ft | 143 kts | 293° |
| 2026-05-06 22:51 | 49.88182 | 6.83003 | 6904 ft | 143 kts | 293° |
| 2026-05-06 22:51 | 49.88647 | 6.81635 | 6906 ft | 143 kts | 293° |
| 2026-05-06 22:51 | 49.89114 | 6.80264 | 6899 ft | 143 kts | 293° |
| 2026-05-06 22:52 | 49.89573 | 6.78915 | 6902 ft | 143 kts | 293° |
| 2026-05-06 22:52 | 49.90038 | 6.77548 | 6905 ft | 143 kts | 293° |
| 2026-05-06 22:52 | 49.90504 | 6.76176 | 6906 ft | 143 kts | 293° |
| 2026-05-06 22:52 | 49.91109 | 6.74929 | 6908 ft | 149 kts | 312° |
| 2026-05-06 22:53 | 49.91988 | 6.74053 | 6899 ft | 152 kts | 326° |
| 2026-05-06 22:53 | 49.92936 | 6.73315 | 6906 ft | 152 kts | 329° |
| 2026-05-06 22:53 | 49.93898 | 6.72607 | 6906 ft | 153 kts | 329° |
| 2026-05-06 22:53 | 49.94859 | 6.71905 | 6902 ft | 153 kts | 330° |
| 2026-05-06 22:54 | 49.95824 | 6.71198 | 6909 ft | 153 kts | 329° |
| 2026-05-06 22:54 | 49.96790 | 6.70489 | 6906 ft | 154 kts | 329° |
| 2026-05-06 22:54 | 49.97756 | 6.69778 | 6904 ft | 154 kts | 329° |
| 2026-05-06 22:54 | 49.98721 | 6.69067 | 6904 ft | 154 kts | 329° |
| 2026-05-06 22:55 | 49.99691 | 6.68351 | 6905 ft | 154 kts | 329° |
| 2026-05-06 22:55 | 50.00660 | 6.67635 | 6902 ft | 154 kts | 329° |
| 2026-05-06 22:55 | 50.01626 | 6.66920 | 6905 ft | 154 kts | 329° |
| 2026-05-06 22:55 | 50.02582 | 6.66212 | 6908 ft | 154 kts | 329° |
| 2026-05-06 22:56 | 50.03551 | 6.65494 | 6899 ft | 154 kts | 330° |
| 2026-05-06 22:56 | 50.04521 | 6.64776 | 6904 ft | 154 kts | 329° |
| 2026-05-06 22:56 | 50.05491 | 6.64057 | 6905 ft | 155 kts | 330° |
| 2026-05-06 22:56 | 50.06458 | 6.63341 | 6906 ft | 154 kts | 330° |
| 2026-05-06 22:57 | 50.07430 | 6.62619 | 6904 ft | 154 kts | 330° |
| 2026-05-06 22:57 | 50.08402 | 6.61898 | 6909 ft | 155 kts | 330° |
| 2026-05-06 22:57 | 50.09371 | 6.61177 | 6903 ft | 155 kts | 330° |
| 2026-05-06 22:57 | 50.10342 | 6.60456 | 6907 ft | 154 kts | 330° |
| 2026-05-06 22:58 | 50.11314 | 6.59733 | 6903 ft | 155 kts | 330° |
| 2026-05-06 22:58 | 50.12284 | 6.59014 | 6901 ft | 154 kts | 330° |
| 2026-05-06 22:58 | 50.13256 | 6.58291 | 6902 ft | 155 kts | 330° |
| 2026-05-06 22:58 | 50.14232 | 6.57564 | 6902 ft | 155 kts | 330° |
| 2026-05-06 22:59 | 50.15207 | 6.56838 | 6909 ft | 155 kts | 330° |
| 2026-05-06 22:59 | 50.16182 | 6.56112 | 6906 ft | 156 kts | 330° |